createdAt,value
2017-10-18T00:00:12.107Z,59.60
2017-10-18T00:02:40.617Z,58.13
2017-10-18T00:05:09.093Z,74.80
2017-10-18T00:07:37.484Z,63.37
2017-10-18T00:10:05.871Z,61.47
2017-10-18T00:12:34.241Z,80.40
2017-10-18T00:15:02.606Z,62.37
2017-10-18T00:17:31.000Z,63.33
2017-10-18T00:19:59.653Z,60.73
2017-10-18T00:22:28.245Z,57.20
2017-10-18T00:24:56.928Z,66.00
2017-10-18T00:27:25.451Z,74.10
2017-10-18T00:29:54.044Z,66.80
2017-10-18T00:32:22.572Z,61.13
2017-10-18T00:34:51.248Z,61.83
2017-10-18T00:37:19.645Z,55.97
2017-10-18T00:39:48.008Z,68.30
2017-10-18T00:42:16.364Z,59.00
2017-10-18T00:44:44.723Z,56.80
2017-10-18T00:47:13.117Z,60.73
2017-10-18T00:49:42.287Z,62.10
2017-10-18T00:52:10.651Z,57.00
2017-10-18T00:54:39.017Z,55.30
2017-10-18T00:57:07.432Z,57.43
2017-10-18T00:59:35.791Z,57.00
2017-10-18T01:02:04.151Z,61.40
2017-10-18T01:04:32.523Z,54.50
2017-10-18T01:07:00.887Z,54.07
2017-10-18T01:09:29.249Z,62.30
2017-10-18T01:11:57.612Z,57.40
2017-10-18T01:14:25.980Z,62.27
2017-10-18T01:16:54.339Z,63.43
2017-10-18T01:19:22.737Z,70.63
2017-10-18T01:21:51.100Z,54.77
2017-10-18T01:24:20.014Z,69.63
2017-10-18T01:26:48.369Z,63.93
2017-10-18T01:29:16.729Z,58.87
2017-10-18T01:31:45.122Z,63.27
2017-10-18T01:34:13.488Z,57.67
2017-10-18T01:36:41.851Z,55.30
2017-10-18T01:39:10.246Z,67.33
2017-10-18T01:41:38.606Z,58.17
2017-10-18T01:44:06.963Z,57.50
2017-10-18T01:46:35.332Z,55.97
2017-10-18T01:49:03.727Z,54.97
2017-10-18T01:51:32.093Z,50.97
2017-10-18T01:54:00.484Z,58.90
2017-10-18T01:56:29.289Z,50.87
2017-10-18T01:58:57.648Z,59.33
2017-10-18T02:01:26.046Z,53.73
2017-10-18T02:03:54.414Z,62.23
2017-10-18T02:06:22.763Z,61.53
2017-10-18T02:08:51.133Z,54.87
2017-10-18T02:11:19.496Z,65.83
2017-10-18T02:13:47.879Z,51.03
2017-10-18T02:16:16.240Z,56.47
2017-10-18T02:18:44.651Z,52.23
2017-10-18T02:21:13.005Z,51.50
2017-10-18T02:23:41.451Z,48.97
2017-10-18T02:26:09.820Z,57.67
2017-10-18T02:28:38.176Z,55.60
2017-10-18T02:31:06.544Z,58.13
2017-10-18T02:33:34.937Z,51.43
2017-10-18T02:36:03.299Z,59.73
2017-10-18T02:38:31.664Z,54.47
2017-10-18T02:41:00.032Z,56.17
2017-10-18T02:43:28.393Z,47.17
2017-10-18T02:45:56.756Z,49.53
2017-10-18T02:48:25.124Z,56.00
2017-10-18T02:50:53.485Z,57.20
2017-10-18T02:53:21.837Z,59.20
2017-10-18T02:55:50.273Z,51.57
2017-10-18T02:58:18.628Z,51.60
2017-10-18T03:00:47.021Z,67.50
2017-10-18T03:03:15.381Z,47.23
2017-10-18T03:05:43.744Z,49.90
2017-10-18T03:08:12.100Z,46.40
2017-10-18T03:10:40.517Z,54.27
2017-10-18T03:13:08.881Z,59.07
2017-10-18T03:15:37.240Z,49.93
2017-10-18T03:18:05.598Z,52.23
2017-10-18T03:20:33.951Z,60.23
2017-10-18T03:23:02.363Z,55.70
2017-10-18T03:25:30.737Z,60.37
2017-10-18T03:27:59.120Z,65.33
2017-10-18T03:30:27.487Z,57.03
2017-10-18T03:32:55.845Z,58.37
2017-10-18T03:35:24.204Z,43.70
2017-10-18T03:37:52.565Z,44.80
2017-10-18T03:40:20.926Z,47.40
2017-10-18T03:42:49.288Z,48.50
2017-10-18T03:45:17.656Z,48.03
2017-10-18T03:47:46.052Z,43.53
2017-10-18T03:50:14.433Z,51.40
2017-10-18T03:52:42.804Z,45.47
2017-10-18T03:55:11.159Z,40.97
2017-10-18T03:57:39.521Z,48.47
2017-10-18T04:00:07.890Z,43.10
2017-10-18T04:02:36.255Z,42.83
2017-10-18T04:05:04.617Z,37.93
2017-10-18T04:07:32.985Z,42.83
2017-10-18T04:10:01.336Z,44.80
2017-10-18T04:12:29.700Z,48.00
2017-10-18T04:14:58.059Z,41.90
2017-10-18T04:17:26.531Z,47.97
2017-10-18T04:19:55.163Z,49.80
2017-10-18T04:22:24.461Z,44.10
2017-10-18T04:24:53.137Z,43.90
2017-10-18T04:27:21.866Z,47.50
2017-10-18T04:29:50.591Z,52.30
2017-10-18T04:32:19.195Z,47.50
2017-10-18T04:34:47.864Z,49.87
2017-10-18T04:37:16.296Z,46.40
2017-10-18T04:39:44.883Z,52.00
2017-10-18T04:42:13.762Z,46.33
2017-10-18T04:44:42.790Z,47.70
2017-10-18T04:47:12.409Z,44.07
2017-10-18T04:49:41.105Z,51.53
2017-10-18T04:52:09.891Z,44.33
2017-10-18T04:54:38.600Z,45.03
2017-10-18T04:57:07.321Z,43.10
2017-10-18T04:59:36.049Z,51.63
2017-10-18T05:02:04.446Z,44.50
2017-10-18T05:04:32.805Z,42.57
2017-10-18T05:07:01.488Z,41.37
2017-10-18T05:09:30.240Z,45.17
2017-10-18T05:11:59.095Z,47.00
2017-10-18T05:14:27.859Z,40.57
2017-10-18T05:16:56.569Z,46.53
2017-10-18T05:19:25.413Z,46.77
2017-10-18T05:21:54.099Z,46.93
2017-10-18T05:24:23.132Z,46.37
2017-10-18T05:26:52.850Z,43.80
2017-10-18T05:29:21.652Z,43.30
2017-10-18T05:31:50.202Z,39.00
2017-10-18T05:34:18.867Z,40.40
2017-10-18T05:36:48.461Z,36.87
2017-10-18T05:39:17.146Z,43.77
2017-10-18T05:41:45.769Z,40.53
2017-10-18T05:44:14.421Z,48.93
2017-10-18T05:46:43.167Z,49.03
2017-10-18T05:49:12.444Z,41.60
2017-10-18T05:51:41.625Z,53.93
2017-10-18T05:54:10.423Z,39.53
2017-10-18T05:56:39.191Z,50.87
2017-10-18T05:59:07.911Z,50.53
2017-10-18T06:01:36.668Z,47.40
2017-10-18T06:04:05.405Z,51.80
2017-10-18T06:06:34.964Z,43.60
2017-10-18T06:09:03.885Z,44.87
2017-10-18T06:11:32.614Z,66.27
2017-10-18T06:14:01.327Z,47.63
2017-10-18T06:16:30.341Z,50.30
2017-10-18T06:18:59.126Z,42.37
2017-10-18T06:21:27.935Z,47.90
2017-10-18T06:23:56.833Z,44.93
2017-10-18T06:26:25.629Z,43.00
2017-10-18T06:28:54.342Z,48.50
2017-10-18T06:31:23.093Z,43.10
2017-10-18T06:33:51.773Z,50.67
2017-10-18T06:36:20.488Z,44.37
2017-10-18T06:38:49.348Z,48.93
2017-10-18T06:41:18.994Z,40.53
2017-10-18T06:43:47.679Z,44.30
2017-10-18T06:46:16.309Z,43.13
2017-10-18T06:48:45.102Z,48.60
2017-10-18T06:51:13.894Z,52.83
2017-10-18T06:53:42.792Z,54.03
2017-10-18T06:56:11.211Z,64.07
2017-10-18T06:58:39.584Z,45.90
2017-10-18T07:01:07.940Z,40.77
2017-10-18T07:03:36.309Z,47.07
2017-10-18T07:06:04.687Z,38.87
2017-10-18T07:08:33.083Z,39.67
2017-10-18T07:11:01.466Z,42.53
2017-10-18T07:13:29.837Z,43.93
2017-10-18T07:15:58.195Z,40.60
2017-10-18T07:18:26.563Z,49.67
2017-10-18T07:20:54.999Z,39.00
2017-10-18T07:23:23.400Z,38.83
2017-10-18T07:25:51.765Z,34.80
2017-10-18T07:28:20.116Z,48.40
2017-10-18T07:30:48.707Z,37.90
2017-10-18T07:33:17.074Z,42.67
2017-10-18T07:35:45.637Z,38.50
2017-10-18T07:38:14.153Z,38.60
2017-10-18T07:40:44.130Z,27.90
2017-10-18T07:43:12.739Z,33.50
2017-10-18T07:45:41.187Z,38.63
2017-10-18T07:48:11.088Z,37.47
2017-10-18T07:50:39.478Z,32.37
2017-10-18T07:53:07.871Z,33.27
2017-10-18T07:55:39.978Z,31.30
2017-10-18T07:58:08.361Z,30.10
2017-10-18T08:00:43.092Z,32.80
2017-10-18T08:03:11.712Z,31.67
2017-10-18T08:05:40.182Z,30.10
2017-10-18T08:08:08.577Z,28.70
2017-10-18T08:10:37.019Z,31.07
2017-10-18T08:13:05.381Z,28.27
2017-10-18T08:15:33.764Z,32.53
2017-10-18T08:18:02.223Z,36.27
2017-10-18T08:20:30.585Z,40.90
2017-10-18T08:22:58.955Z,37.30
2017-10-18T08:25:27.326Z,29.90
2017-10-18T08:27:55.715Z,25.83
2017-10-18T08:30:24.080Z,20.30
2017-10-18T08:32:52.672Z,18.50
2017-10-18T08:35:21.062Z,23.17
2017-10-18T08:37:49.413Z,16.70
2017-10-18T08:40:17.788Z,10.23
2017-10-18T08:42:46.140Z,15.33
2017-10-18T08:45:14.525Z,11.13
2017-10-18T08:47:42.904Z,12.83
2017-10-18T08:50:11.253Z,10.83
2017-10-18T08:52:39.617Z,12.37
2017-10-18T08:55:07.960Z,14.97
2017-10-18T08:57:36.339Z,14.53
2017-10-18T09:00:04.719Z,10.60
2017-10-18T09:02:33.107Z,15.40
2017-10-18T09:05:01.459Z,13.90
2017-10-18T09:07:29.840Z,14.83
2017-10-18T09:09:58.176Z,8.90
2017-10-18T09:12:26.521Z,11.73
2017-10-18T09:14:54.899Z,9.53
2017-10-18T09:17:23.277Z,19.63
2017-10-18T09:19:51.645Z,16.80
2017-10-18T09:22:20.017Z,11.83
2017-10-18T09:24:48.395Z,8.70
2017-10-18T09:27:16.728Z,6.10
2017-10-18T09:29:45.083Z,11.80
2017-10-18T09:32:13.471Z,10.27
2017-10-18T09:34:41.816Z,10.43
2017-10-18T09:37:10.192Z,7.77
2017-10-18T09:39:38.537Z,7.90
2017-10-18T09:42:06.927Z,8.90
2017-10-18T09:44:35.286Z,5.97
2017-10-18T09:47:03.657Z,4.80
2017-10-18T09:49:32.031Z,8.13
2017-10-18T09:52:00.372Z,9.23
2017-10-18T09:54:28.728Z,5.27
2017-10-18T09:56:57.073Z,6.33
2017-10-18T09:59:25.424Z,9.07
2017-10-18T10:01:53.792Z,5.90
2017-10-18T10:04:22.188Z,15.50
2017-10-18T10:06:50.536Z,4.63
2017-10-18T10:09:18.887Z,7.00
2017-10-18T10:11:47.245Z,6.50
2017-10-18T10:14:15.585Z,8.13
2017-10-18T10:16:43.959Z,5.13
2017-10-18T10:19:12.346Z,4.93
2017-10-18T10:21:40.693Z,5.83
2017-10-18T10:24:09.041Z,7.80
2017-10-18T10:26:37.388Z,8.13
2017-10-18T10:29:05.847Z,8.67
2017-10-18T10:31:34.179Z,9.07
2017-10-18T10:34:02.548Z,8.10
2017-10-18T10:36:30.899Z,6.17
2017-10-18T10:38:59.271Z,11.07
2017-10-18T10:41:27.645Z,5.23
2017-10-18T10:43:56.012Z,4.33
2017-10-18T10:46:24.379Z,5.30
2017-10-18T10:48:52.750Z,6.60
2017-10-18T10:51:21.092Z,4.10
2017-10-18T10:53:49.455Z,7.87
2017-10-18T10:56:17.802Z,5.43
2017-10-18T10:58:46.209Z,5.00
2017-10-18T11:01:14.544Z,4.90
2017-10-18T11:03:42.892Z,4.90
2017-10-18T11:06:11.241Z,6.57
2017-10-18T11:08:39.580Z,3.80
2017-10-18T11:11:07.954Z,3.57
2017-10-18T11:13:36.323Z,9.60
2017-10-18T11:16:04.696Z,5.83
2017-10-18T11:18:33.049Z,5.00
2017-10-18T11:21:01.407Z,6.50
2017-10-18T11:23:29.752Z,8.67
2017-10-18T11:25:58.156Z,13.57
2017-10-18T11:28:26.508Z,8.23
2017-10-18T11:30:54.853Z,16.67
2017-10-18T11:33:23.197Z,12.67
2017-10-18T11:35:51.573Z,5.03
2017-10-18T11:38:19.908Z,4.40
2017-10-18T11:40:48.271Z,5.80
2017-10-18T11:43:16.618Z,9.30
2017-10-18T11:45:44.985Z,7.17
2017-10-18T11:48:13.323Z,6.90
2017-10-18T11:50:41.692Z,6.53
2017-10-18T11:53:10.033Z,7.87
2017-10-18T11:55:38.380Z,4.80
2017-10-18T11:58:06.748Z,4.70
2017-10-18T12:00:35.091Z,9.13
2017-10-18T12:03:03.468Z,5.10
2017-10-18T12:05:31.813Z,13.40
2017-10-18T12:08:00.168Z,7.90
2017-10-18T12:10:28.635Z,5.10
2017-10-18T12:12:56.971Z,5.63
2017-10-18T12:15:25.353Z,9.47
2017-10-18T12:17:53.693Z,7.87
2017-10-18T12:20:22.059Z,9.80
2017-10-18T12:22:50.506Z,5.97
2017-10-18T12:25:18.865Z,6.40
2017-10-18T12:27:47.214Z,9.03
2017-10-18T12:30:15.598Z,7.43
2017-10-18T12:32:43.981Z,8.40
2017-10-18T12:35:13.472Z,7.43
2017-10-18T12:37:42.020Z,11.73
2017-10-18T12:40:10.462Z,7.27
2017-10-18T12:42:38.827Z,7.70
2017-10-18T12:45:07.184Z,6.00
2017-10-18T12:47:35.540Z,11.50
2017-10-18T12:50:03.892Z,6.50
2017-10-18T12:52:32.228Z,4.63
2017-10-18T12:55:00.620Z,10.73
2017-10-18T12:57:28.968Z,6.40
2017-10-18T12:59:57.331Z,8.17
2017-10-18T13:02:25.700Z,6.63
2017-10-18T13:04:54.068Z,7.90
2017-10-18T13:07:22.420Z,7.57
2017-10-18T13:09:50.789Z,9.13
2017-10-18T13:12:19.158Z,5.73
2017-10-18T13:14:47.532Z,5.80
2017-10-18T13:17:15.900Z,8.83
2017-10-18T13:19:44.293Z,6.23
2017-10-18T13:22:12.652Z,6.83
2017-10-18T13:24:41.037Z,11.43
2017-10-18T13:27:09.376Z,4.97
2017-10-18T13:29:37.805Z,7.00
2017-10-18T13:32:06.132Z,11.10
2017-10-18T13:34:34.496Z,9.23
2017-10-18T13:37:02.847Z,6.23
2017-10-18T13:39:31.483Z,6.50
2017-10-18T13:41:59.852Z,7.23
2017-10-18T13:44:28.229Z,6.77
2017-10-18T13:46:56.595Z,5.13
2017-10-18T13:49:24.967Z,7.73
2017-10-18T13:51:53.333Z,4.90
2017-10-18T13:54:21.677Z,7.70
2017-10-18T13:56:50.043Z,5.53
2017-10-18T13:59:18.393Z,7.43
2017-10-18T14:01:46.740Z,6.03
2017-10-18T14:04:15.144Z,8.10
2017-10-18T14:06:43.491Z,8.73
2017-10-18T14:09:11.905Z,18.30
2017-10-18T14:11:40.252Z,10.57
2017-10-18T14:14:08.594Z,7.60
2017-10-18T14:16:36.963Z,18.43
2017-10-18T14:19:05.322Z,8.57
2017-10-18T14:21:33.691Z,6.50
2017-10-18T14:24:02.041Z,14.10
2017-10-18T14:26:30.418Z,12.07
2017-10-18T14:28:59.059Z,20.77
2017-10-18T14:31:27.491Z,10.90
2017-10-18T14:33:56.071Z,5.67
2017-10-18T14:36:24.485Z,5.23
2017-10-18T14:38:52.962Z,7.30
2017-10-18T14:41:21.364Z,7.63
2017-10-18T14:43:49.720Z,10.73
2017-10-18T14:46:18.059Z,7.73
2017-10-18T14:48:46.421Z,16.47
2017-10-18T14:51:14.800Z,7.27
2017-10-18T14:53:43.142Z,6.27
2017-10-18T14:56:11.512Z,8.67
2017-10-18T14:58:39.862Z,11.70
2017-10-18T15:01:08.232Z,9.23
2017-10-18T15:03:36.582Z,12.57
2017-10-18T15:06:04.943Z,7.47
2017-10-18T15:08:33.324Z,8.30
2017-10-18T15:11:02.030Z,9.90
2017-10-18T15:13:30.388Z,12.93
2017-10-18T15:15:58.727Z,7.70
2017-10-18T15:18:27.083Z,8.67
2017-10-18T15:20:55.431Z,7.40
2017-10-18T15:23:23.807Z,9.47
2017-10-18T15:25:52.176Z,6.00
2017-10-18T15:28:20.520Z,13.03
2017-10-18T15:30:49.805Z,6.90
2017-10-18T15:33:18.147Z,13.33
2017-10-18T15:35:46.500Z,9.37
2017-10-18T15:38:14.845Z,8.07
2017-10-18T15:40:43.180Z,9.63
2017-10-18T15:43:11.552Z,13.47
2017-10-18T15:45:39.900Z,6.47
2017-10-18T15:48:08.275Z,10.53
2017-10-18T15:50:36.625Z,7.23
2017-10-18T15:53:04.964Z,7.40
2017-10-18T15:55:33.308Z,6.03
2017-10-18T15:58:01.655Z,12.33
2017-10-18T16:00:30.000Z,12.63
2017-10-18T16:02:58.423Z,10.07
2017-10-18T16:05:26.804Z,8.70
2017-10-18T16:07:55.149Z,6.27
2017-10-18T16:10:23.490Z,9.13
2017-10-18T16:12:51.860Z,8.53
2017-10-18T16:15:20.272Z,6.80
2017-10-18T16:17:48.613Z,11.97
2017-10-18T16:20:16.997Z,5.43
2017-10-18T16:22:45.364Z,8.43
2017-10-18T16:25:13.716Z,13.83
2017-10-18T16:27:42.068Z,9.87
2017-10-18T16:30:10.408Z,11.23
2017-10-18T16:32:38.779Z,11.83
2017-10-18T16:35:07.135Z,13.97
2017-10-18T16:37:35.520Z,10.83
2017-10-18T16:40:03.873Z,9.63
2017-10-18T16:42:32.244Z,12.33
2017-10-18T16:45:00.588Z,12.23
2017-10-18T16:47:28.965Z,19.13
2017-10-18T16:49:57.300Z,8.50
2017-10-18T16:52:25.692Z,11.87
2017-10-18T16:54:54.039Z,16.37
2017-10-18T16:57:22.388Z,12.37
2017-10-18T16:59:50.738Z,19.90
2017-10-18T17:02:19.096Z,16.33
2017-10-18T17:04:47.480Z,8.13
2017-10-18T17:07:15.837Z,13.20
2017-10-18T17:09:44.195Z,8.77
2017-10-18T17:12:12.543Z,14.00
2017-10-18T17:14:40.949Z,13.10
2017-10-18T17:17:09.300Z,13.83
2017-10-18T17:19:37.679Z,10.07
2017-10-18T17:22:06.028Z,12.43
2017-10-18T17:24:34.405Z,16.00
2017-10-18T17:27:02.747Z,9.93
2017-10-18T17:29:31.124Z,20.83
2017-10-18T17:31:59.467Z,8.23
2017-10-18T17:34:27.810Z,11.17
2017-10-18T17:36:56.172Z,10.50
2017-10-18T17:39:24.511Z,16.97
2017-10-18T17:41:52.872Z,10.50
2017-10-18T17:44:21.245Z,20.00
2017-10-18T17:46:49.590Z,16.00
2017-10-18T17:49:17.970Z,13.07
2017-10-18T17:51:46.353Z,13.80
2017-10-18T17:54:14.695Z,11.40
2017-10-18T17:56:43.071Z,15.10
2017-10-18T17:59:11.423Z,19.07
2017-10-18T18:01:39.847Z,13.60
2017-10-18T18:04:08.252Z,21.20
2017-10-18T18:06:36.608Z,17.30
2017-10-18T18:09:04.950Z,12.00
2017-10-18T18:11:33.296Z,11.90
2017-10-18T18:14:01.643Z,22.73
2017-10-18T18:16:30.021Z,11.40
2017-10-18T18:18:58.381Z,9.87
2017-10-18T18:21:26.753Z,14.93
2017-10-18T18:23:55.117Z,14.33
2017-10-18T18:26:23.501Z,17.63
2017-10-18T18:28:51.846Z,11.43
2017-10-18T18:31:20.252Z,13.70
2017-10-18T18:33:48.628Z,16.43
2017-10-18T18:36:17.462Z,16.30
2017-10-18T18:38:45.807Z,13.50
2017-10-18T18:41:14.165Z,11.60
2017-10-18T18:43:42.512Z,13.60
2017-10-18T18:46:10.858Z,16.93
2017-10-18T18:48:39.224Z,13.93
2017-10-18T18:51:07.580Z,15.77
2017-10-18T18:53:36.085Z,18.27
2017-10-18T18:56:04.527Z,14.70
2017-10-18T18:58:33.102Z,14.10
2017-10-18T19:01:01.792Z,15.00
2017-10-18T19:03:31.469Z,12.17
2017-10-18T19:06:00.197Z,13.60
2017-10-18T19:08:28.891Z,17.77
2017-10-18T19:10:57.355Z,19.77
2017-10-18T19:13:26.089Z,19.37
2017-10-18T19:15:54.739Z,19.73
2017-10-18T19:18:24.038Z,16.97
2017-10-18T19:20:54.181Z,16.23
2017-10-18T19:23:23.724Z,14.90
2017-10-18T19:25:59.125Z,14.20
2017-10-18T19:28:27.771Z,22.40
2017-10-18T19:30:57.788Z,14.40
2017-10-18T19:33:28.579Z,11.90
2017-10-18T19:35:57.290Z,14.43
2017-10-18T19:38:26.066Z,13.00
2017-10-18T19:40:55.640Z,14.67
2017-10-18T19:43:24.083Z,14.13
2017-10-18T19:45:52.494Z,16.57
2017-10-18T19:48:21.107Z,14.23
2017-10-18T19:50:49.799Z,18.40
2017-10-18T19:53:20.742Z,20.83
2017-10-18T19:55:49.372Z,17.67
2017-10-18T19:58:21.172Z,25.60
2017-10-18T20:00:49.560Z,16.33
2017-10-18T20:03:17.916Z,17.00
2017-10-18T20:05:46.305Z,17.70
2017-10-18T20:08:14.669Z,21.83
2017-10-18T20:10:43.023Z,19.50
2017-10-18T20:13:11.383Z,21.50
2017-10-18T20:15:39.747Z,22.47
2017-10-18T20:18:08.147Z,17.17
2017-10-18T20:20:36.510Z,17.30
2017-10-18T20:23:04.887Z,16.70
2017-10-18T20:25:33.292Z,18.70
2017-10-18T20:28:02.148Z,17.63
2017-10-18T20:30:30.501Z,18.80
2017-10-18T20:32:59.211Z,21.53
2017-10-18T20:35:27.571Z,18.60
2017-10-18T20:37:55.938Z,21.10
2017-10-18T20:40:24.333Z,19.50
2017-10-18T20:42:52.719Z,24.57
2017-10-18T20:45:21.077Z,23.87
2017-10-18T20:47:49.465Z,23.80
2017-10-18T20:50:17.830Z,21.97
2017-10-18T20:52:46.223Z,24.63
2017-10-18T20:55:14.606Z,23.07
2017-10-18T20:57:42.997Z,22.27
2017-10-18T21:00:11.394Z,23.60
2017-10-18T21:02:39.780Z,21.60
2017-10-18T21:05:08.153Z,24.70
2017-10-18T21:07:36.503Z,22.77
2017-10-18T21:10:04.874Z,22.50
2017-10-18T21:12:33.230Z,24.77
2017-10-18T21:15:01.593Z,30.60
2017-10-18T21:17:29.986Z,23.90
2017-10-18T21:19:58.336Z,21.80
2017-10-18T21:22:26.699Z,22.33
2017-10-18T21:24:55.065Z,21.20
2017-10-18T21:27:23.427Z,22.43
2017-10-18T21:29:51.925Z,22.20
2017-10-18T21:32:20.308Z,23.90
2017-10-18T21:34:48.672Z,26.60
2017-10-18T21:37:17.039Z,27.37
2017-10-18T21:39:45.395Z,26.63
2017-10-18T21:42:13.753Z,28.27
2017-10-18T21:44:42.142Z,37.37
2017-10-18T21:47:10.509Z,33.03
2017-10-18T21:49:38.887Z,30.37
2017-10-18T21:52:07.649Z,28.90
2017-10-18T21:54:36.053Z,28.30
2017-10-18T21:57:04.799Z,26.53
2017-10-18T21:59:33.187Z,30.43
2017-10-18T22:02:01.579Z,26.87
2017-10-18T22:04:29.938Z,25.43
2017-10-18T22:06:58.301Z,20.10
2017-10-18T22:09:26.652Z,23.93
2017-10-18T22:11:55.012Z,20.33
2017-10-18T22:14:23.394Z,24.60
2017-10-18T22:16:51.759Z,23.83
2017-10-18T22:19:20.112Z,23.07
2017-10-18T22:21:48.468Z,22.00
2017-10-18T22:24:16.829Z,21.57
2017-10-18T22:26:45.192Z,28.93
2017-10-18T22:29:13.556Z,27.40
2017-10-18T22:31:41.916Z,25.23
2017-10-18T22:34:10.300Z,24.43
2017-10-18T22:36:38.660Z,24.63
2017-10-18T22:39:07.040Z,26.63
2017-10-18T22:41:35.396Z,23.80
2017-10-18T22:44:03.760Z,25.93
2017-10-18T22:46:32.124Z,28.00
2017-10-18T22:49:00.485Z,20.47
2017-10-18T22:51:28.840Z,25.57
2017-10-18T22:53:57.200Z,25.47
2017-10-18T22:56:25.595Z,26.07
2017-10-18T22:58:53.956Z,23.33
2017-10-18T23:01:22.312Z,24.93
2017-10-18T23:03:50.673Z,31.80
2017-10-18T23:06:19.104Z,26.67
2017-10-18T23:08:47.456Z,31.57
2017-10-18T23:11:15.836Z,25.70
2017-10-18T23:13:44.196Z,25.93
2017-10-18T23:16:12.559Z,28.93
2017-10-18T23:18:40.909Z,24.83
2017-10-18T23:21:09.315Z,26.03
2017-10-18T23:23:37.689Z,23.80
2017-10-18T23:26:06.071Z,21.40
2017-10-18T23:28:34.465Z,24.00
2017-10-18T23:31:02.845Z,30.80
2017-10-18T23:33:31.195Z,22.50
2017-10-18T23:35:59.580Z,24.70
2017-10-18T23:38:27.940Z,23.53
2017-10-18T23:40:56.296Z,27.50
2017-10-18T23:43:24.660Z,24.50
2017-10-18T23:45:53.044Z,23.70
2017-10-18T23:48:21.394Z,23.13
2017-10-18T23:50:49.759Z,25.83
2017-10-18T23:53:18.145Z,24.50
2017-10-18T23:55:46.499Z,26.57
2017-10-18T23:58:14.890Z,25.80
